Weather at Eger Apollo Airfield

Public forecast

Using degrees Celsius for public forecast. Weather courtesy of forecast.io.

Closest aviation weather report (METAR) to Eger Apollo Airfield

Closest report is Szolnok Air Base, 47.5 nm (87.9 km) S.

2024/05/25 16:45 (retrieved 17 minutes ago)

LHSN 251645Z 13004KT CAVOK 25/11 Q1015 NOSIG RMK BLU

Closest aviation forecast (TAF) to Eger Apollo Airfield

Closest forecast is Budapest Liszt Ferenc International Airport, 54.3 nm (100.6 km) WSW.

2024/05/25 12:27 (retrieved 5 hours ago)

TAF TAF LHBP 251115Z 2512/2612 12010KT CAVOK PROB30 TEMPO 2512/2518 VRB20G35KT 4000 TSRA SCT040CB BKN055 BECMG 2516/2519 07006KT PROB40 TEMPO 2518/2602 VRB12G22KT 6000 SHRA SCT055TCU BKN070